Time;durP1;ratioP1;P1;durP2;ratioP2;P2;SDS_P1;SDS_P2;PMS_P1;PMS_P2;Temp;Humidity;BMP_temperature;BMP_pressure;BME280_temperature;BME280_humidity;BME280_pressure;Samples;Min_cycle;Max_cycle;Signal;HPM_P1;HPM_P2
2021/06/07 00:00:39;;;;;;;11.27;7.27;;;16.80;99.90;;;;;;5033439;28;20480;-71
2021/06/07 00:03:05;;;;;;;14.43;8.13;;;16.80;99.90;;;;;;5032818;28;20167;-71
2021/06/07 00:05:31;;;;;;;11.17;7.87;;;16.80;99.90;;;;;;5033176;28;20198;-71
2021/06/07 00:07:56;;;;;;;11.17;7.23;;;16.80;99.90;;;;;;5049582;28;20204;-71
2021/06/07 00:10:23;;;;;;;12.50;7.83;;;16.80;99.90;;;;;;5050713;28;20513;-71
2021/06/07 00:12:49;;;;;;;10.70;7.87;;;16.80;99.90;;;;;;5032987;28;20583;-71
2021/06/07 00:15:17;;;;;;;13.80;7.50;;;16.80;99.90;;;;;;5032925;28;20471;-71
2021/06/07 00:17:43;;;;;;;12.63;7.60;;;16.80;99.90;;;;;;5033856;28;20459;-71
2021/06/07 00:20:11;;;;;;;10.40;6.80;;;16.80;99.90;;;;;;5037071;28;20404;-71
2021/06/07 00:22:38;;;;;;;11.90;7.77;;;16.80;99.90;;;;;;5036971;28;20205;-71
2021/06/07 00:25:06;;;;;;;10.80;7.20;;;16.80;99.90;;;;;;5037221;28;20527;-71
2021/06/07 00:27:32;;;;;;;14.07;9.57;;;16.80;99.90;;;;;;5057152;28;20392;-71
2021/06/07 00:29:58;;;;;;;12.53;7.03;;;16.80;99.90;;;;;;5056713;28;20396;-71
2021/06/07 00:32:23;;;;;;;17.10;9.23;;;16.80;99.90;;;;;;5056790;28;20255;-71
2021/06/07 00:34:49;;;;;;;16.50;7.90;;;16.70;99.90;;;;;;5055914;28;20984;-70
2021/06/07 00:37:15;;;;;;;14.03;9.00;;;16.70;99.90;;;;;;5056646;28;20170;-71
2021/06/07 00:39:40;;;;;;;17.83;8.50;;;16.70;99.90;;;;;;5056733;28;20635;-70
2021/06/07 00:42:07;;;;;;;17.20;9.87;;;16.70;99.90;;;;;;5056427;28;20248;-70
2021/06/07 00:44:32;;;;;;;15.67;9.00;;;16.70;99.90;;;;;;5055528;28;20192;-70
2021/06/07 00:46:58;;;;;;;13.57;8.30;;;16.70;99.90;;;;;;5035250;28;20405;-70
2021/06/07 00:49:24;;;;;;;14.67;8.73;;;16.70;99.90;;;;;;5036811;28;20170;-71
2021/06/07 00:51:50;;;;;;;14.10;9.27;;;16.70;99.90;;;;;;5049898;28;20177;-71
2021/06/07 00:54:16;;;;;;;14.00;9.70;;;16.70;99.90;;;;;;5054520;28;20236;-71
2021/06/07 00:56:43;;;;;;;11.60;8.47;;;16.60;99.90;;;;;;5055879;28;20177;-70
2021/06/07 00:59:08;;;;;;;13.83;8.53;;;16.60;99.90;;;;;;5056045;28;20423;-70
2021/06/07 01:01:34;;;;;;;13.60;9.60;;;16.60;99.90;;;;;;5056189;28;20771;-70
2021/06/07 01:04:01;;;;;;;18.40;10.60;;;16.60;99.90;;;;;;5057040;28;20611;-70
2021/06/07 01:06:28;;;;;;;17.23;8.60;;;16.60;99.90;;;;;;5057336;28;20403;-71
2021/06/07 01:08:54;;;;;;;14.97;10.20;;;16.60;99.90;;;;;;5056193;28;20403;-70
2021/06/07 01:11:21;;;;;;;12.80;8.73;;;16.60;99.90;;;;;;5055352;28;20778;-70
2021/06/07 01:13:48;;;;;;;17.20;9.50;;;16.60;99.90;;;;;;5054924;28;20235;-70
2021/06/07 01:16:14;;;;;;;14.47;7.90;;;16.60;99.90;;;;;;5055959;28;20789;-70
2021/06/07 01:18:40;;;;;;;12.80;8.77;;;16.60;99.90;;;;;;5056028;28;20391;-71
2021/06/07 01:21:11;;;;;;;16.03;10.50;;;16.60;99.90;;;;;;5054644;28;20681;-70
2021/06/07 01:23:38;;;;;;;20.17;8.83;;;16.60;99.90;;;;;;5054039;28;20422;-70
2021/06/07 01:26:06;;;;;;;14.43;8.47;;;16.60;99.90;;;;;;5051040;28;20800;-71
2021/06/07 01:28:33;;;;;;;14.07;8.80;;;16.60;99.90;;;;;;5055638;28;20408;-71
2021/06/07 01:30:59;;;;;;;15.67;8.67;;;16.60;99.90;;;;;;5055651;28;20404;-69
2021/06/07 01:33:26;;;;;;;20.20;10.60;;;16.60;99.90;;;;;;5055300;28;20411;-71
2021/06/07 01:35:53;;;;;;;15.13;8.63;;;16.60;99.90;;;;;;5055543;28;20429;-71
2021/06/07 01:38:20;;;;;;;14.77;8.20;;;16.60;99.90;;;;;;5055622;28;20801;-71
2021/06/07 01:40:48;;;;;;;14.40;8.70;;;16.50;99.90;;;;;;5043978;28;20456;-71
2021/06/07 01:43:15;;;;;;;17.97;10.43;;;16.50;99.90;;;;;;5035256;28;20417;-71
2021/06/07 01:45:42;;;;;;;17.47;9.03;;;16.50;99.90;;;;;;5035498;28;20471;-71
2021/06/07 01:48:09;;;;;;;12.73;9.20;;;16.50;99.90;;;;;;5035359;28;20519;-70
2021/06/07 01:50:36;;;;;;;15.50;9.80;;;16.50;99.90;;;;;;5035389;28;20405;-71
2021/06/07 01:53:03;;;;;;;16.73;9.80;;;16.50;99.90;;;;;;5034875;28;20427;-71
2021/06/07 01:55:35;;;;;;;14.70;8.10;;;16.50;99.90;;;;;;5035190;28;20834;-71
2021/06/07 01:58:03;;;;;;;20.43;10.47;;;16.50;99.90;;;;;;5035996;28;20519;-71
2021/06/07 02:00:44;;;;;;;17.17;9.77;;;16.50;99.90;;;;;;5035188;28;20416;-71
2021/06/07 02:03:12;;;;;;;14.67;9.17;;;16.50;99.90;;;;;;5034820;28;20915;-71
2021/06/07 02:05:40;;;;;;;16.63;10.07;;;16.50;99.90;;;;;;5034874;28;20437;-70
2021/06/07 02:08:10;;;;;;;16.77;10.07;;;16.50;99.90;;;;;;5034990;28;20401;-71
2021/06/07 02:10:39;;;;;;;13.37;9.13;;;16.50;99.90;;;;;;5035189;28;20598;-71
2021/06/07 02:13:07;;;;;;;14.27;9.10;;;16.50;99.90;;;;;;5034589;28;20408;-71
2021/06/07 02:15:33;;;;;;;16.37;8.43;;;16.60;99.90;;;;;;5034758;28;20407;-72
2021/06/07 02:18:07;;;;;;;19.00;10.53;;;16.60;99.90;;;;;;5052629;28;20469;-71
2021/06/07 02:20:34;;;;;;;15.00;8.17;;;16.50;99.90;;;;;;5039480;28;20185;-72
2021/06/07 02:23:00;;;;;;;12.77;8.60;;;16.50;99.90;;;;;;5034199;28;20958;-71
2021/06/07 02:25:26;;;;;;;18.70;10.37;;;16.50;99.90;;;;;;5033397;28;20439;-71
2021/06/07 02:27:53;;;;;;;19.67;9.77;;;16.50;99.90;;;;;;5034702;28;20412;-71
2021/06/07 02:30:25;;;;;;;16.30;7.87;;;16.50;99.90;;;;;;5034538;28;20170;-70
2021/06/07 02:32:55;;;;;;;17.43;9.40;;;16.50;99.90;;;;;;5050145;28;20423;-70
2021/06/07 02:35:22;;;;;;;16.20;9.40;;;16.50;99.90;;;;;;5054499;28;20481;-70
2021/06/07 02:37:49;;;;;;;19.30;9.10;;;16.50;99.90;;;;;;5054470;28;20415;-71
2021/06/07 02:40:18;;;;;;;18.73;9.77;;;16.50;99.90;;;;;;5052526;28;20432;-70
2021/06/07 02:42:43;;;;;;;16.07;9.50;;;16.40;99.90;;;;;;5034129;28;20951;-70
2021/06/07 02:45:15;;;;;;;14.43;8.87;;;16.40;99.90;;;;;;5034128;28;20442;-71
2021/06/07 02:47:42;;;;;;;17.90;9.70;;;16.50;99.90;;;;;;5035055;28;20268;-71
2021/06/07 02:50:11;;;;;;;14.70;8.10;;;16.40;99.90;;;;;;5033915;28;20845;-71
2021/06/07 02:52:47;;;;;;;13.60;9.33;;;16.40;99.90;;;;;;5034459;28;20481;-71
2021/06/07 02:55:21;;;;;;;14.10;8.87;;;16.40;99.90;;;;;;5033839;28;20439;-70
2021/06/07 02:57:48;;;;;;;19.73;9.77;;;16.40;99.90;;;;;;5033980;28;20775;-71
2021/06/07 03:00:19;;;;;;;14.53;8.00;;;16.50;99.90;;;;;;5036432;28;20434;-70
2021/06/07 03:02:44;;;;;;;16.83;8.83;;;16.50;99.90;;;;;;5053775;28;20459;-70
2021/06/07 03:05:11;;;;;;;15.93;8.10;;;16.40;99.90;;;;;;5053634;28;20441;-70
2021/06/07 03:07:36;;;;;;;15.20;8.37;;;16.40;99.90;;;;;;5053985;28;20168;-71
2021/06/07 03:10:06;;;;;;;18.60;10.13;;;16.40;99.90;;;;;;5053234;28;20511;-71
2021/06/07 03:12:31;;;;;;;15.40;9.20;;;16.40;99.90;;;;;;5053673;28;20184;-71
2021/06/07 03:14:57;;;;;;;20.03;10.70;;;16.40;99.90;;;;;;5053320;28;20522;-71
2021/06/07 03:17:23;;;;;;;13.03;9.10;;;16.40;99.90;;;;;;5053884;28;20179;-72
2021/06/07 03:19:48;;;;;;;18.93;10.63;;;16.40;99.90;;;;;;5053814;28;20181;-68
2021/06/07 03:22:14;;;;;;;13.47;9.13;;;16.40;99.90;;;;;;5048499;28;20556;-70
2021/06/07 03:24:40;;;;;;;16.80;8.57;;;16.40;99.90;;;;;;5033187;28;20209;-70
2021/06/07 03:27:06;;;;;;;18.90;10.40;;;16.40;99.90;;;;;;5033604;28;20177;-70
2021/06/07 03:29:32;;;;;;;15.20;8.27;;;16.40;99.90;;;;;;5034117;28;20410;-71
2021/06/07 03:31:58;;;;;;;14.30;9.60;;;16.40;99.90;;;;;;5034133;28;20492;-71
2021/06/07 03:34:23;;;;;;;19.80;9.70;;;16.40;99.90;;;;;;5033540;28;20576;-71
2021/06/07 03:36:49;;;;;;;20.13;11.30;;;16.50;99.90;;;;;;5033801;28;20255;-71
2021/06/07 03:39:15;;;;;;;23.23;10.77;;;16.40;99.90;;;;;;5032286;28;20632;-71
2021/06/07 03:41:40;;;;;;;16.17;9.43;;;16.40;99.90;;;;;;5033572;28;20202;-71
2021/06/07 03:44:06;;;;;;;14.07;9.27;;;16.40;99.90;;;;;;5031849;28;20228;-70
2021/06/07 03:46:31;;;;;;;19.93;9.80;;;16.40;99.90;;;;;;5033639;28;20181;-71
2021/06/07 03:48:57;;;;;;;16.50;9.80;;;16.30;99.90;;;;;;5038702;28;20207;-71
2021/06/07 03:51:23;;;;;;;16.00;9.50;;;16.30;99.90;;;;;;5053292;28;20252;-73
2021/06/07 03:53:48;;;;;;;17.43;10.07;;;16.40;99.90;;;;;;5055766;28;20196;-71
2021/06/07 03:56:14;;;;;;;17.23;10.70;;;16.30;99.90;;;;;;5056091;28;20524;-70
2021/06/07 03:58:40;;;;;;;21.13;10.40;;;16.30;99.90;;;;;;5040590;28;20288;-70
2021/06/07 04:01:05;;;;;;;19.27;10.30;;;16.30;99.90;;;;;;5043445;28;20196;-70
2021/06/07 04:03:33;;;;;;;20.80;12.27;;;16.30;99.90;;;;;;5056967;28;20180;-70
2021/06/07 04:05:58;;;;;;;16.40;9.20;;;16.30;99.90;;;;;;5057687;28;20238;-70
2021/06/07 04:08:24;;;;;;;16.50;9.87;;;16.30;99.90;;;;;;5057211;28;20868;-69
2021/06/07 04:10:50;;;;;;;19.80;9.63;;;16.30;99.90;;;;;;5053821;28;20264;-70
2021/06/07 04:13:15;;;;;;;24.57;10.80;;;16.30;99.90;;;;;;5057347;28;20169;-70
2021/06/07 04:15:42;;;;;;;13.43;9.13;;;16.40;99.90;;;;;;5057044;28;20197;-70
2021/06/07 04:18:07;;;;;;;23.40;9.90;;;16.30;99.90;;;;;;5056996;28;20243;-71
2021/06/07 04:20:34;;;;;;;20.73;10.67;;;16.30;99.90;;;;;;5040233;28;20425;-71
2021/06/07 04:23:00;;;;;;;22.70;10.50;;;16.30;99.90;;;;;;5036414;28;20276;-71
2021/06/07 04:25:26;;;;;;;22.87;10.03;;;16.30;99.90;;;;;;5036908;28;20961;-71
2021/06/07 04:27:54;;;;;;;20.50;10.10;;;16.30;99.90;;;;;;5036831;28;20410;-71
2021/06/07 04:30:21;;;;;;;21.20;10.33;;;16.30;99.90;;;;;;5036892;28;20404;-71
2021/06/07 04:32:49;;;;;;;18.00;9.70;;;16.30;99.90;;;;;;5036885;28;20462;-71
2021/06/07 04:35:16;;;;;;;17.00;8.13;;;16.30;99.90;;;;;;5042995;28;20452;-72
2021/06/07 04:37:49;;;;;;;20.30;11.10;;;16.30;99.90;;;;;;5036656;28;20428;-73
2021/06/07 04:40:16;;;;;;;18.20;9.43;;;16.30;99.90;;;;;;5036705;28;20462;-71
2021/06/07 04:42:42;;;;;;;21.40;10.40;;;16.30;99.90;;;;;;5036587;28;20459;-71
2021/06/07 04:45:08;;;;;;;21.87;10.47;;;16.30;99.90;;;;;;5036485;28;20429;-71
2021/06/07 04:47:34;;;;;;;17.20;10.60;;;16.30;99.90;;;;;;5035318;28;20261;-70
2021/06/07 04:50:00;;;;;;;15.00;9.20;;;16.40;99.90;;;;;;5036310;28;20519;-70
2021/06/07 04:52:26;;;;;;;19.90;10.60;;;16.40;99.90;;;;;;5036427;28;20181;-70
2021/06/07 04:54:52;;;;;;;14.90;10.33;;;16.40;99.90;;;;;;5034655;28;20444;-70
2021/06/07 04:57:18;;;;;;;21.93;10.90;;;16.40;99.90;;;;;;5052544;28;20446;-71
2021/06/07 04:59:43;;;;;;;18.73;10.37;;;16.50;99.90;;;;;;5056315;28;20181;-70
2021/06/07 05:02:09;;;;;;;18.80;11.37;;;16.50;99.90;;;;;;5039129;28;20209;-71
2021/06/07 05:04:35;;;;;;;23.03;10.50;;;16.50;99.90;;;;;;5035255;28;20221;-71
2021/06/07 05:07:00;;;;;;;15.87;10.33;;;16.50;99.90;;;;;;5036101;28;20201;-71
2021/06/07 05:09:26;;;;;;;17.60;10.20;;;16.50;99.90;;;;;;5036083;28;20260;-70
2021/06/07 05:11:52;;;;;;;16.00;8.53;;;16.50;99.90;;;;;;5035008;28;20178;-70
2021/06/07 05:14:17;;;;;;;21.37;10.07;;;16.60;99.90;;;;;;5035512;28;20216;-70
2021/06/07 05:16:43;;;;;;;19.90;11.20;;;16.60;99.90;;;;;;5036147;28;20174;-71
2021/06/07 05:19:08;;;;;;;20.00;9.60;;;16.60;99.90;;;;;;5036569;28;20204;-71
2021/06/07 05:21:34;;;;;;;17.40;8.80;;;16.60;99.90;;;;;;5035339;28;20213;-70
2021/06/07 05:24:00;;;;;;;19.90;9.80;;;16.60;99.90;;;;;;5035639;28;20174;-71
2021/06/07 05:26:25;;;;;;;14.93;8.83;;;16.60;99.90;;;;;;5035973;28;20181;-70
2021/06/07 05:28:51;;;;;;;16.83;8.30;;;16.60;99.90;;;;;;5036005;28;20201;-71
2021/06/07 05:31:17;;;;;;;23.43;11.13;;;16.50;99.90;;;;;;5044697;28;20216;-70
2021/06/07 05:33:42;;;;;;;13.70;9.50;;;16.50;99.90;;;;;;5055202;28;20184;-72
2021/06/07 05:36:08;;;;;;;22.17;10.37;;;16.50;99.90;;;;;;5055522;28;20201;-70
2021/06/07 05:38:34;;;;;;;15.30;9.33;;;16.60;99.90;;;;;;5055482;28;20180;-70
2021/06/07 05:41:00;;;;;;;18.53;8.43;;;16.60;99.90;;;;;;5055544;28;20411;-71
2021/06/07 05:43:26;;;;;;;15.87;9.40;;;16.70;99.90;;;;;;5055167;28;20693;-70
2021/06/07 05:45:52;;;;;;;17.30;9.47;;;16.70;99.90;;;;;;5047296;28;20448;-70
2021/06/07 05:48:19;;;;;;;23.07;13.50;;;16.60;99.90;;;;;;5038507;28;20213;-71
2021/06/07 05:50:45;;;;;;;18.13;9.27;;;16.60;99.90;;;;;;5053774;28;20412;-72
2021/06/07 05:53:12;;;;;;;18.43;8.77;;;16.60;99.90;;;;;;5053609;28;20562;-72
2021/06/07 05:55:41;;;;;;;21.33;9.10;;;16.60;99.90;;;;;;5055206;28;20431;-71
2021/06/07 05:58:12;;;;;;;12.23;8.30;;;16.60;99.90;;;;;;5054915;28;20434;-70
2021/06/07 06:00:41;;;;;;;20.00;9.20;;;16.60;99.90;;;;;;5046879;28;20424;-71
2021/06/07 06:03:07;;;;;;;15.20;8.67;;;16.60;99.90;;;;;;5034818;28;20518;-69
2021/06/07 06:05:33;;;;;;;13.50;7.17;;;16.60;99.90;;;;;;5035142;28;20432;-71
2021/06/07 06:07:59;;;;;;;17.33;9.00;;;16.70;99.90;;;;;;5033786;28;20815;-69
2021/06/07 06:10:24;;;;;;;16.20;9.13;;;16.60;99.90;;;;;;5033834;28;20266;-70
2021/06/07 06:12:50;;;;;;;14.70;7.67;;;16.70;99.90;;;;;;5034593;28;20716;-71
2021/06/07 06:15:19;;;;;;;18.70;8.53;;;16.70;99.90;;;;;;5040803;28;20221;-71
2021/06/07 06:17:45;;;;;;;17.27;8.27;;;16.80;99.90;;;;;;5043635;28;20422;-71
2021/06/07 06:20:12;;;;;;;14.00;8.70;;;16.70;99.90;;;;;;5034870;28;20863;-71
2021/06/07 06:22:37;;;;;;;14.93;8.00;;;16.80;99.90;;;;;;5034808;28;20556;-71
2021/06/07 06:25:06;;;;;;;15.40;8.40;;;16.80;99.90;;;;;;5034266;28;20511;-69
2021/06/07 06:27:32;;;;;;;15.90;8.13;;;16.80;99.90;;;;;;5034874;28;20404;-69
2021/06/07 06:29:58;;;;;;;18.50;10.13;;;16.80;99.90;;;;;;5034847;28;20504;-70
2021/06/07 06:32:23;;;;;;;16.90;7.53;;;16.80;99.90;;;;;;5034455;28;20170;-70
2021/06/07 06:34:49;;;;;;;15.77;8.40;;;16.80;99.90;;;;;;5034287;28;20289;-70
2021/06/07 06:37:15;;;;;;;15.50;7.93;;;16.80;99.90;;;;;;5035140;28;20250;-71
2021/06/07 06:39:41;;;;;;;18.93;9.47;;;16.80;99.90;;;;;;5035969;28;20355;-70
2021/06/07 06:42:08;;;;;;;14.83;8.63;;;16.80;99.90;;;;;;5035403;28;20500;-70
2021/06/07 06:44:34;;;;;;;14.23;7.60;;;16.80;99.90;;;;;;5044200;28;20531;-70
2021/06/07 06:47:00;;;;;;;11.73;7.30;;;16.80;99.90;;;;;;5054045;28;20488;-71
2021/06/07 06:49:25;;;;;;;15.70;8.03;;;16.80;99.90;;;;;;5053973;28;20955;-70
2021/06/07 06:51:51;;;;;;;13.87;7.03;;;16.80;99.90;;;;;;5053939;28;20890;-70
2021/06/07 06:54:17;;;;;;;16.77;8.77;;;16.80;99.90;;;;;;5054421;28;20194;-70
2021/06/07 06:56:43;;;;;;;14.90;8.10;;;16.80;99.90;;;;;;5053072;28;20185;-70
2021/06/07 06:59:09;;;;;;;12.70;7.10;;;16.90;99.90;;;;;;5054633;28;20277;-71
2021/06/07 07:01:34;;;;;;;14.70;7.97;;;16.90;99.90;;;;;;5055136;28;20519;-71
2021/06/07 07:04:00;;;;;;;10.80;7.30;;;16.90;99.90;;;;;;5054356;28;20166;-71
2021/06/07 07:06:27;;;;;;;14.77;8.10;;;16.90;99.90;;;;;;5053120;28;20432;-70
2021/06/07 07:08:53;;;;;;;9.60;6.67;;;16.90;99.90;;;;;;5034035;28;20393;-71
2021/06/07 07:11:19;;;;;;;12.07;7.20;;;17.00;99.90;;;;;;5033595;28;20476;-70
2021/06/07 07:13:45;;;;;;;11.27;5.73;;;17.00;99.90;;;;;;5033146;28;20182;-71
2021/06/07 07:16:11;;;;;;;9.37;5.70;;;17.10;99.90;;;;;;5033710;28;20411;-70
2021/06/07 07:18:37;;;;;;;10.50;5.20;;;17.20;99.90;;;;;;5033734;28;20406;-71
2021/06/07 07:21:03;;;;;;;8.40;5.10;;;17.30;99.90;;;;;;5033708;28;20464;-70
2021/06/07 07:23:29;;;;;;;10.13;4.77;;;17.30;99.90;;;;;;5033268;28;20427;-70
2021/06/07 07:25:55;;;;;;;7.70;5.00;;;17.30;99.90;;;;;;5033640;28;20422;-70
2021/06/07 07:28:21;;;;;;;9.07;5.13;;;17.40;99.90;;;;;;5033752;28;20255;-70
2021/06/07 07:30:46;;;;;;;12.20;6.07;;;17.50;99.90;;;;;;5033630;28;20171;-71
2021/06/07 07:33:13;;;;;;;10.00;5.80;;;17.50;99.90;;;;;;5034197;28;20225;-70
2021/06/07 07:35:39;;;;;;;8.70;5.50;;;17.50;99.90;;;;;;5053007;28;20602;-71
2021/06/07 07:38:05;;;;;;;10.00;6.43;;;17.50;99.90;;;;;;5053605;28;20421;-70
2021/06/07 07:40:31;;;;;;;8.60;5.30;;;17.60;99.90;;;;;;5053590;28;20423;-71
2021/06/07 07:42:57;;;;;;;10.07;5.70;;;17.70;99.90;;;;;;5052808;28;20436;-70
2021/06/07 07:45:27;;;;;;;10.07;5.53;;;17.80;99.90;;;;;;5053188;28;20781;-70
2021/06/07 07:47:58;;;;;;;12.30;5.40;;;17.70;99.90;;;;;;5053008;28;20832;-70
2021/06/07 07:50:24;;;;;;;9.30;4.87;;;17.70;99.90;;;;;;5053271;28;20409;-71
2021/06/07 07:52:50;;;;;;;11.07;5.93;;;17.70;99.90;;;;;;5050950;28;20429;-70
2021/06/07 07:55:19;;;;;;;11.27;6.00;;;17.70;99.90;;;;;;5052830;28;20781;-70
2021/06/07 07:57:47;;;;;;;10.87;4.50;;;17.70;99.90;;;;;;5052901;28;20198;-70
2021/06/07 08:00:14;;;;;;;13.47;6.00;;;17.70;99.90;;;;;;5052927;28;20413;-71
2021/06/07 08:02:40;;;;;;;11.80;5.90;;;17.70;99.90;;;;;;5052014;28;20767;-69
2021/06/07 08:05:07;;;;;;;12.63;6.20;;;17.70;99.90;;;;;;5031354;28;20439;-70
2021/06/07 08:07:33;;;;;;;13.30;6.40;;;17.60;99.90;;;;;;5033051;28;20201;-65
2021/06/07 08:09:59;;;;;;;11.57;6.13;;;17.60;99.90;;;;;;5033259;28;20804;-70
2021/06/07 08:12:24;;;;;;;12.83;5.77;;;17.60;99.90;;;;;;5051123;28;20520;-76
2021/06/07 08:14:50;;;;;;;12.93;6.17;;;17.60;99.90;;;;;;5052117;28;20208;-72
2021/06/07 08:17:16;;;;;;;13.13;5.40;;;17.70;99.90;;;;;;5053207;28;20172;-72
2021/06/07 08:19:43;;;;;;;12.23;6.80;;;17.70;99.90;;;;;;5052912;28;20414;-71
2021/06/07 08:22:09;;;;;;;11.90;6.20;;;17.70;99.90;;;;;;5051653;28;20454;-70
2021/06/07 08:24:35;;;;;;;16.87;7.80;;;17.80;99.90;;;;;;5052288;28;20497;-68
2021/06/07 08:27:02;;;;;;;12.97;5.80;;;17.90;99.90;;;;;;5035318;28;20425;-69
2021/06/07 08:29:28;;;;;;;16.50;7.60;;;17.90;99.90;;;;;;5033009;28;20177;-69
2021/06/07 08:31:53;;;;;;;12.23;6.63;;;18.00;99.90;;;;;;5032801;28;20415;-69
2021/06/07 08:34:19;;;;;;;13.87;6.17;;;18.00;99.90;;;;;;5032400;28;20192;-69
2021/06/07 08:36:45;;;;;;;13.00;6.53;;;18.00;99.90;;;;;;5032924;28;20232;-69
2021/06/07 08:39:11;;;;;;;14.67;6.70;;;18.00;99.90;;;;;;5034715;28;20193;-69
2021/06/07 08:41:38;;;;;;;13.67;5.70;;;18.00;99.90;;;;;;5036434;28;20207;-67
2021/06/07 08:44:04;;;;;;;14.07;6.23;;;18.00;99.90;;;;;;5036016;28;20478;-69
2021/06/07 08:46:30;;;;;;;15.40;6.70;;;18.10;99.90;;;;;;5036457;28;20416;-69
2021/06/07 08:48:57;;;;;;;14.00;5.30;;;18.10;99.90;;;;;;5036381;28;20404;-70
2021/06/07 08:51:24;;;;;;;15.97;7.07;;;18.10;99.90;;;;;;5036204;28;20408;-69
2021/06/07 08:53:50;;;;;;;14.67;6.10;;;18.20;99.90;;;;;;5036029;28;20491;-69
2021/06/07 08:56:16;;;;;;;13.47;6.77;;;18.40;99.90;;;;;;5054708;28;20522;-69
2021/06/07 08:58:42;;;;;;;15.97;7.63;;;18.50;99.90;;;;;;5056027;28;20604;-69
2021/06/07 09:01:09;;;;;;;13.53;5.77;;;18.50;99.90;;;;;;5047731;28;20427;-69
2021/06/07 09:03:35;;;;;;;12.30;6.40;;;18.50;99.90;;;;;;5035982;28;20178;-69
2021/06/07 09:06:03;;;;;;;15.80;7.00;;;18.50;99.90;;;;;;5035922;28;20475;-69
2021/06/07 09:08:35;;;;;;;16.27;8.50;;;18.50;99.90;;;;;;5035953;28;20412;-68
2021/06/07 09:11:17;;;;;;;12.47;6.00;;;18.50;99.90;;;;;;5034563;28;20756;-71
2021/06/07 09:13:44;;;;;;;15.57;7.63;;;18.50;99.90;;;;;;5035864;28;20413;-69
2021/06/07 09:16:11;;;;;;;17.10;6.80;;;18.40;99.90;;;;;;5045995;28;20420;-69
2021/06/07 09:18:40;;;;;;;14.50;6.77;;;18.40;99.90;;;;;;5048726;28;20428;-69
2021/06/07 09:21:13;;;;;;;14.73;7.80;;;18.40;99.90;;;;;;5035774;28;20484;-68
2021/06/07 09:23:42;;;;;;;13.77;6.30;;;18.40;99.90;;;;;;5035538;28;20889;-68
2021/06/07 09:26:27;;;;;;;13.37;6.37;;;18.40;99.90;;;;;;5035591;28;20433;-68
2021/06/07 09:28:55;;;;;;;16.00;8.07;;;18.40;99.90;;;;;;5035744;28;20399;-68
2021/06/07 09:31:36;;;;;;;17.40;5.87;;;18.40;99.90;;;;;;5035569;28;20889;-69
2021/06/07 09:34:07;;;;;;;16.27;6.20;;;18.50;99.90;;;;;;5035196;28;20529;-68
2021/06/07 09:36:37;;;;;;;15.53;6.90;;;18.60;99.90;;;;;;5035308;28;20427;-72
2021/06/07 09:39:14;;;;;;;13.13;6.53;;;18.60;99.90;;;;;;5035757;28;20406;-69
2021/06/07 09:42:01;;;;;;;14.17;6.30;;;18.70;99.90;;;;;;5034825;28;20454;-68
2021/06/07 09:44:33;;;;;;;15.30;7.20;;;18.70;99.90;;;;;;5034950;28;20443;-67
2021/06/07 09:47:15;;;;;;;17.60;8.10;;;18.70;99.90;;;;;;5035659;28;20400;-68
2021/06/07 09:49:55;;;;;;;13.80;6.87;;;18.70;99.90;;;;;;5034928;28;20427;-69
2021/06/07 09:52:30;;;;;;;15.27;7.03;;;18.70;99.90;;;;;;5034934;28;20409;-69
2021/06/07 09:55:17;;;;;;;16.00;6.77;;;18.80;99.90;;;;;;5034650;28;20460;-70
2021/06/07 09:57:51;;;;;;;15.40;6.97;;;18.90;99.90;;;;;;5035082;28;21007;-69
2021/06/07 10:00:43;;;;;;;14.33;6.50;;;19.00;99.90;;;;;;5050079;28;20436;-69
2021/06/07 10:03:31;;;;;;;17.40;7.80;;;19.10;99.90;;;;;;5036645;28;20529;-71
2021/06/07 10:06:16;;;;;;;13.43;5.43;;;19.20;99.90;;;;;;5055005;28;20828;-70
2021/06/07 10:08:47;;;;;;;14.70;6.80;;;19.20;99.90;;;;;;5044639;28;20818;-68
2021/06/07 10:11:18;;;;;;;13.17;7.03;;;19.20;99.90;;;;;;5059727;28;20511;-69
2021/06/07 10:13:44;;;;;;;17.33;8.10;;;19.30;99.90;;;;;;5054411;28;20495;-69
2021/06/07 10:16:10;;;;;;;17.73;7.53;;;19.40;99.90;;;;;;5046448;28;20413;-70
2021/06/07 10:18:36;;;;;;;15.07;7.67;;;19.40;99.90;;;;;;5034874;28;20401;-70
2021/06/07 10:21:04;;;;;;;13.00;6.80;;;19.40;99.90;;;;;;5035792;28;20775;-70
2021/06/07 10:23:32;;;;;;;15.53;7.23;;;19.40;99.90;;;;;;5043190;28;20412;-70
2021/06/07 10:26:00;;;;;;;15.10;7.33;;;19.50;99.90;;;;;;5048232;28;20941;-71
2021/06/07 10:28:33;;;;;;;15.67;7.80;;;19.50;99.90;;;;;;5054732;28;20417;-71
2021/06/07 10:31:17;;;;;;;13.60;7.47;;;19.60;99.90;;;;;;5051313;28;20451;-70
2021/06/07 10:33:54;;;;;;;16.53;7.00;;;19.60;99.90;;;;;;5054093;28;20376;-69
2021/06/07 10:36:23;;;;;;;19.70;8.83;;;19.60;99.90;;;;;;5037180;28;20411;-71
2021/06/07 10:38:53;;;;;;;16.80;8.07;;;19.60;99.90;;;;;;5054115;28;20408;-71
2021/06/07 10:41:27;;;;;;;15.93;9.20;;;19.70;99.90;;;;;;5037245;28;20505;-71
2021/06/07 10:43:55;;;;;;;15.80;6.90;;;19.70;99.90;;;;;;5033992;28;20412;-70
2021/06/07 10:46:26;;;;;;;15.67;6.93;;;19.90;99.90;;;;;;5050910;28;20426;-70
2021/06/07 10:48:53;;;;;;;16.83;8.63;;;19.90;99.90;;;;;;5050889;28;20417;-70
2021/06/07 10:51:25;;;;;;;16.13;8.20;;;20.00;99.90;;;;;;5048987;28;20432;-70
2021/06/07 10:53:53;;;;;;;14.40;6.03;;;20.00;99.90;;;;;;5048911;28;20771;-69
2021/06/07 10:56:24;;;;;;;13.10;7.90;;;19.90;99.90;;;;;;5042661;28;20412;-70
2021/06/07 10:58:57;;;;;;;18.37;8.37;;;19.80;99.90;;;;;;5044142;28;20451;-69
2021/06/07 11:01:47;;;;;;;15.27;7.57;;;19.80;99.90;;;;;;5052891;28;20456;-67
2021/06/07 11:04:12;;;;;;;14.00;7.23;;;19.70;99.90;;;;;;5059424;28;20785;-68
2021/06/07 11:06:52;;;;;;;17.33;7.97;;;19.70;99.90;;;;;;5045590;28;20420;-69
2021/06/07 11:09:18;;;;;;;20.50;8.47;;;19.70;99.90;;;;;;5049413;28;20634;-72
2021/06/07 11:11:48;;;;;;;16.60;6.97;;;19.70;99.90;;;;;;5052845;28;20447;-70
2021/06/07 11:14:14;;;;;;;14.93;7.17;;;19.70;99.90;;;;;;5046743;28;20440;-70
2021/06/07 11:16:43;;;;;;;17.93;8.30;;;19.70;99.90;;;;;;5051079;28;20423;-70
2021/06/07 11:19:10;;;;;;;12.33;6.97;;;19.70;99.90;;;;;;5048412;28;20445;-70
2021/06/07 11:21:43;;;;;;;15.23;6.93;;;19.60;99.90;;;;;;5049625;28;20451;-70
2021/06/07 11:24:45;;;;;;;14.70;7.60;;;19.60;99.90;;;;;;5052404;28;20934;-70
2021/06/07 11:27:33;;;;;;;17.03;8.10;;;19.70;99.90;;;;;;5046634;28;20428;-70
2021/06/07 11:30:15;;;;;;;14.90;7.30;;;19.70;99.90;;;;;;5045994;28;20469;-71
2021/06/07 11:32:41;;;;;;;18.20;7.90;;;19.70;99.90;;;;;;5034302;28;20519;-70
2021/06/07 11:35:08;;;;;;;16.63;7.50;;;19.70;99.90;;;;;;5031519;28;20452;-71
2021/06/07 11:37:35;;;;;;;15.40;8.30;;;19.80;99.90;;;;;;5038779;28;20421;-69
2021/06/07 11:40:06;;;;;;;15.83;7.53;;;19.90;99.90;;;;;;5052942;28;20421;-69
2021/06/07 11:42:32;;;;;;;15.17;8.13;;;19.90;99.90;;;;;;5051158;28;20459;-70
2021/06/07 11:45:08;;;;;;;14.80;7.33;;;20.00;99.90;;;;;;5052676;28;20878;-72
2021/06/07 11:47:36;;;;;;;17.40;7.77;;;20.10;99.90;;;;;;5052419;28;20165;-73
2021/06/07 11:50:04;;;;;;;14.43;8.50;;;20.20;99.90;;;;;;5053116;28;20495;-73
2021/06/07 11:52:33;;;;;;;14.37;6.70;;;20.30;99.90;;;;;;5047885;28;20416;-74
2021/06/07 11:55:00;;;;;;;16.80;7.20;;;20.30;99.90;;;;;;5052171;28;20434;-72
2021/06/07 11:57:26;;;;;;;15.33;8.77;;;20.40;99.90;;;;;;5047813;28;21019;-72
2021/06/07 11:59:57;;;;;;;15.93;7.73;;;20.50;99.90;;;;;;5051013;28;20419;-72
2021/06/07 12:02:24;;;;;;;14.60;7.23;;;20.60;99.90;;;;;;5051327;28;20451;-71
2021/06/07 12:04:51;;;;;;;15.37;7.80;;;20.60;99.90;;;;;;5046999;28;20447;-70
2021/06/07 12:07:17;;;;;;;14.70;7.50;;;20.40;99.90;;;;;;5052015;28;20408;-71
2021/06/07 12:09:48;;;;;;;17.90;7.87;;;20.40;99.90;;;;;;5051781;28;20412;-70
2021/06/07 12:12:15;;;;;;;18.00;7.67;;;20.40;99.90;;;;;;5052552;28;20416;-71
2021/06/07 12:14:43;;;;;;;12.87;6.80;;;20.50;99.90;;;;;;5054648;28;20629;-72
2021/06/07 12:17:21;;;;;;;15.33;7.90;;;20.60;99.90;;;;;;5056176;28;20431;-73
2021/06/07 12:19:57;;;;;;;15.70;9.03;;;20.70;99.90;;;;;;5049433;28;20412;-73
2021/06/07 12:22:39;;;;;;;15.93;8.37;;;20.60;99.90;;;;;;5036681;28;20494;-71
2021/06/07 12:30:25;;;;;;;17.47;10.13;;;20.00;99.90;;;;;;5037019;28;20513;-64
2021/06/07 12:32:53;;;;;;;18.30;8.50;;;19.90;99.90;;;;;;5039056;28;20945;-64
2021/06/07 12:35:20;;;;;;;18.60;8.80;;;19.90;99.90;;;;;;5056534;28;20749;-63
2021/06/07 12:37:53;;;;;;;20.60;9.57;;;20.00;99.90;;;;;;5053927;28;20423;-64
2021/06/07 12:40:34;;;;;;;17.60;8.10;;;20.10;99.90;;;;;;5036223;28;20471;-64
2021/06/07 12:43:07;;;;;;;17.23;8.20;;;20.30;99.90;;;;;;5046851;28;20868;-64
2021/06/07 12:45:50;;;;;;;18.27;8.53;;;20.60;99.90;;;;;;5038298;28;20436;-67